CYBN

CFB Borden Heliport

Borden, Ontario, Canada
METAR CYBN 100600Z AUTO 29004KT 9SM OVC026 M00/M03 A3014 RMK SLP216
Observed Flight Rules
Dec-10 @ 06:00 UTC (30 minutes ago) Marginal Visual Flight Rules
Wind Visibility Clouds
290° at 4 knots 9 miles
  • Overcast at 2,600' AGL
Temperatures Readings
Current 0°C / 32°F
Dewpoint -3°C / 27°F
Humidity 80%
Altimeter 30.14" Hg
Pressure 1021.6 hPa
Elevation 223
METAR CYBN 100600Z AUTO 29004KT 9SM OVC026 M00/M03 A3014 RMK SLP216
Observed Flight Rules
Dec-10 @ 06:00 UTC
(30 minutes ago)
MVFR
Wind Visibility
290° at 4 knots 9 miles
Clouds
  • Overcast at 2,600' AGL
Temperature Dewpoint
0°C / 32°F -3°C / 27°F
Humidity Altimeter Pressure
80% 30.14" Hg 1021.6 hPa